Disclaimer

Please do not use the information listed here in-flight or in-navigation, as they are not provided to us by the airports but are provided by volunteers, so they might be outdated.

Search


Regions


Airport information page

Radio informations:
POTOSI APP/TWR - 118.9 MHz

Airport informations:
Latitude: 22° 15' 15.49" N
Longitude: 100° 55' 50.90" W
Elevation: 6035 feet - 1839 meters
Operating hours: 24 hour operations
Operating agency: Civil government, landing fees and diplomatic clearance may be required
Timezone: UTC-6(-5DT) - First Sunday in April to the last Saturday in October
Fuel: Jet A1, without icing nhibitor.

100/130 octane gasoline, leaded, MIL-L-5572F (GREEN)

Runway information:
04/22 - 3259 x 98 feet< - >993 x 30 meters
14/32 - 9867 x 148 feet< - >3007 x 45 meters

Recent METARs:
MMSP 131413Z 06005KT 3SM BR HZ OVC002 12/11 A3027 RMK 8/5//
MMSP 131450Z 01004KT 4SM SCT003 BKN007 OVC080 12/10 A3028 RMK SLP094 54000 910 8/53/ HZY
MMSP 131450Z 01004KT 4SM SCT003 BKN007 OVC080 12/10 A3028 RMK SLP094 54000 910 8/53/ HZY

Airport on the map: